Time;durP1;ratioP1;P1;durP2;ratioP2;P2;SDS_P1;SDS_P2;PMS_P1;PMS_P2;Temp;Humidity;BMP_temperature;BMP_pressure;BME280_temperature;BME280_humidity;BME280_pressure;Samples;Min_cycle;Max_cycle;Signal;HPM_P1;HPM_P2
2021/01/05 00:02:21;;;;;;;9.20;4.68;;;;;;;8.63;68.15;99149.75;4418012;32;34005;-78
2021/01/05 00:04:58;;;;;;;4.72;3.40;;;;;;;8.91;67.19;99137.31;4403722;32;34249;-78
2021/01/05 00:07:31;;;;;;;4.30;3.80;;;;;;;8.99;66.56;99142.72;4392110;32;34345;-78
2021/01/05 00:10:11;;;;;;;5.25;2.40;;;;;;;8.84;67.15;99147.69;4403698;32;36682;-79
2021/01/05 00:13:00;;;;;;;4.20;3.65;;;;;;;8.82;67.06;99141.69;4379384;32;33479;-78
2021/01/05 00:16:02;;;;;;;5.45;2.95;;;;;;;9.16;65.95;99140.06;4392748;32;31606;-78
2021/01/05 00:21:25;;;;;;;4.37;2.87;;;;;;;8.82;67.01;99141.69;4433049;32;35421;-77
2021/01/05 00:24:24;;;;;;;6.05;3.37;;;;;;;9.04;66.18;99143.94;4421840;32;32570;-79
2021/01/05 00:32:49;;;;;;;8.65;5.07;;;;;;;8.85;66.73;99146.72;4407080;32;33622;-78
2021/01/05 00:35:30;;;;;;;5.35;2.92;;;;;;;8.89;66.53;99148.06;4416596;32;33850;-77
2021/01/05 00:38:27;;;;;;;7.05;4.10;;;;;;;8.66;67.38;99140.69;4418564;32;33773;-77
2021/01/05 00:43:54;;;;;;;6.47;4.05;;;;;;;8.60;67.62;99144.75;4432990;32;35966;-77
2021/01/05 00:46:54;;;;;;;5.50;3.92;;;;;;;8.54;67.91;99155.94;4423300;32;34841;-77
2021/01/05 00:49:36;;;;;;;3.85;2.45;;;;;;;8.69;67.29;99149.16;4431767;32;32875;-78
2021/01/05 00:52:17;;;;;;;7.85;5.45;;;;;;;8.24;68.80;99151.91;4407819;32;32181;-77
2021/01/05 00:55:17;;;;;;;4.60;3.83;;;;;;;8.71;67.19;99146.38;4432994;32;34618;-77
2021/01/05 00:58:11;;;;;;;6.37;4.07;;;;;;;8.75;67.12;99145.09;4405095;32;33376;-78
2021/01/05 01:00:53;;;;;;;3.60;2.75;;;;;;;8.60;67.48;99149.25;4418277;32;35681;-79
2021/01/05 01:03:33;;;;;;;3.95;3.55;;;;;;;8.51;67.75;99148.28;4418790;32;34161;-77
2021/01/05 01:06:48;;;;;;;5.12;4.40;;;;;;;8.45;68.16;99154.16;4433057;32;35462;-77
2021/01/05 01:09:32;;;;;;;5.12;3.58;;;;;;;8.61;67.32;99151.72;4429982;32;33983;-78
2021/01/05 01:12:43;;;;;;;3.83;2.87;;;;;;;8.69;67.20;99145.72;4407715;32;31501;-78
2021/01/05 01:15:55;;;;;;;4.60;3.12;;;;;;;8.46;67.76;99160.31;4432588;32;34716;-78
2021/01/05 01:19:00;;;;;;;4.68;4.10;;;;;;;8.68;67.23;99152.81;4432579;32;35116;-78
2021/01/05 01:21:40;;;;;;;5.37;4.85;;;;;;;8.79;66.84;99154.44;4418351;32;32620;-77
2021/01/05 01:27:22;;;;;;;2.60;2.35;;;;;;;8.91;66.39;99145.28;4421040;32;33690;-77
2021/01/05 01:30:15;;;;;;;7.20;3.42;;;;;;;8.82;66.58;99147.00;4419184;32;34410;-78
2021/01/05 01:32:52;;;;;;;3.60;2.58;;;;;;;9.06;65.58;99147.25;4431150;32;32862;-77
2021/01/05 01:38:18;;;;;;;5.12;3.53;;;;;;;9.00;65.67;99147.03;4406541;32;34825;-77
2021/01/05 01:41:26;;;;;;;4.25;2.58;;;;;;;8.85;66.03;99141.41;4432226;32;35844;-79
2021/01/05 01:47:11;;;;;;;5.40;3.37;;;;;;;8.71;66.47;99135.78;4419295;32;33578;-79
2021/01/05 01:50:07;;;;;;;6.82;4.82;;;;;;;8.93;65.83;99135.34;4432389;32;34474;-78
2021/01/05 01:53:13;;;;;;;4.03;3.60;;;;;;;8.75;66.55;99130.03;4418672;32;34200;-78
2021/01/05 01:56:38;;;;;;;4.10;3.72;;;;;;;8.83;66.26;99122.16;4420773;32;34276;-79
2021/01/05 01:59:51;;;;;;;3.55;3.10;;;;;;;8.64;66.75;99116.97;4432312;32;32986;-79
2021/01/05 02:06:01;;;;;;;4.30;3.92;;;;;;;7.64;70.54;99110.78;4432261;32;35538;-77
2021/01/05 02:09:01;;;;;;;2.90;2.37;;;;;;;7.30;71.76;99112.22;4418768;32;34681;-77
2021/01/05 02:12:25;;;;;;;3.80;3.10;;;;;;;7.55;71.32;99106.34;4421065;32;33342;-77
2021/01/05 02:19:58;;;;;;;3.67;2.75;;;;;;;7.72;70.71;99102.13;4428687;32;34338;-78
2021/01/05 02:23:33;;;;;;;9.68;4.05;;;;;;;7.56;71.13;99091.31;4361600;32;33678;-78
2021/01/05 02:26:56;;;;;;;3.35;3.12;;;;;;;7.37;71.84;99092.16;4370611;32;33754;-79
2021/01/05 02:29:50;;;;;;;8.93;4.60;;;;;;;7.39;71.94;99084.09;4358602;32;33373;-78
2021/01/05 02:32:36;;;;;;;6.28;2.50;;;;;;;7.14;72.82;99085.50;4379673;32;34878;-80
2021/01/05 02:35:24;;;;;;;5.00;3.65;;;;;;;7.01;73.29;99092.03;4416175;32;34118;-79
2021/01/05 02:38:21;;;;;;;3.97;2.97;;;;;;;7.01;73.47;99087.56;4406457;32;33541;-79
2021/01/05 02:41:29;;;;;;;3.40;3.10;;;;;;;6.86;73.80;99083.69;4388713;32;34631;-78
2021/01/05 02:48:30;;;;;;;6.18;4.32;;;;;;;7.06;73.10;99077.44;4406645;32;32260;-79
2021/01/05 02:52:14;;;;;;;4.35;3.95;;;;;;;7.26;72.05;99078.25;4428059;32;33419;-78
2021/01/05 02:55:42;;;;;;;4.70;3.42;;;;;;;7.25;72.55;99079.22;4372655;32;34854;-78
2021/01/05 02:58:53;;;;;;;4.15;3.67;;;;;;;6.92;73.44;99080.47;4363109;32;35751;-80
2021/01/05 03:02:34;;;;;;;4.50;4.12;;;;;;;7.38;71.90;99075.28;4370443;32;34983;-80
2021/01/05 03:06:00;;;;;;;5.55;4.65;;;;;;;7.40;71.64;99070.72;4359357;32;33556;-79
2021/01/05 03:09:35;;;;;;;6.45;4.93;;;;;;;7.65;70.73;99066.62;4307833;33;33219;-77
2021/01/05 03:13:32;;;;;;;6.22;3.95;;;;;;;7.42;71.31;99063.47;4363599;32;33355;-78
2021/01/05 03:16:45;;;;;;;4.60;4.07;;;;;;;8.02;69.28;99064.81;4408027;32;34268;-78
2021/01/05 03:19:54;;;;;;;5.10;3.85;;;;;;;8.03;69.02;99063.84;4370109;32;33013;-78
2021/01/05 03:23:32;;;;;;;7.60;4.30;;;;;;;7.68;69.93;99066.31;4385317;32;33618;-77
2021/01/05 03:26:36;;;;;;;7.53;5.50;;;;;;;8.02;69.16;99059.53;4359929;32;35781;-78
2021/01/05 03:29:42;;;;;;;5.68;4.37;;;;;;;7.96;69.34;99060.09;4391173;32;33863;-78
2021/01/05 03:32:47;;;;;;;7.07;5.12;;;;;;;7.98;69.10;99047.53;4375496;32;33754;-76
2021/01/05 03:35:46;;;;;;;7.40;5.65;;;;;;;7.89;69.28;99056.34;4352120;32;34218;-77
2021/01/05 03:38:39;;;;;;;10.50;5.62;;;;;;;7.83;69.77;99046.34;4352821;32;34081;-77
2021/01/05 03:42:04;;;;;;;7.53;5.12;;;;;;;7.54;70.71;99043.78;4399982;32;34061;-78
2021/01/05 03:44:56;;;;;;;5.20;3.08;;;;;;;7.49;71.04;99051.34;4373113;32;32108;-76
2021/01/05 03:48:02;;;;;;;4.50;4.07;;;;;;;7.52;71.08;99040.47;4415928;32;33551;-77
2021/01/05 03:50:56;;;;;;;16.83;7.35;;;;;;;7.52;71.43;99044.91;4411600;32;35701;-79
2021/01/05 03:53:44;;;;;;;8.63;5.95;;;;;;;7.63;70.80;99050.06;4403810;32;33956;-79
2021/01/05 03:56:47;;;;;;;7.50;4.25;;;;;;;7.45;71.31;99049.94;4410981;32;32750;-78
2021/01/05 03:59:34;;;;;;;11.75;6.45;;;;;;;7.20;72.72;99036.50;4437653;32;33521;-78
2021/01/05 04:02:55;;;;;;;8.20;4.70;;;;;;;7.26;72.51;99044.69;4405268;32;34682;-79
2021/01/05 04:05:33;;;;;;;12.63;7.20;;;;;;;7.27;72.44;99045.53;4403002;32;33523;-79
2021/01/05 04:08:33;;;;;;;4.45;3.95;;;;;;;7.29;72.35;99033.81;4441941;32;32901;-81
2021/01/05 04:13:48;;;;;;;5.70;4.93;;;;;;;7.13;73.09;99040.66;4447527;32;34802;-77
2021/01/05 04:16:26;;;;;;;7.15;5.00;;;;;;;7.40;72.25;99036.31;4423536;32;33760;-76
2021/01/05 04:19:02;;;;;;;7.50;6.80;;;;;;;7.36;72.27;99034.91;4448644;32;32664;-78
2021/01/05 04:21:38;;;;;;;17.80;6.80;;;;;;;7.12;73.36;99031.06;4435464;32;33882;-78
2021/01/05 04:24:32;;;;;;;9.40;6.15;;;;;;;7.03;73.36;99026.63;4423544;32;36017;-77
2021/01/05 04:27:06;;;;;;;10.68;5.12;;;;;;;7.01;73.61;99024.09;4448530;32;34705;-76
2021/01/05 04:30:19;;;;;;;;;;;;;;;6.94;73.84;99022.19;4436636;32;35770;-78
2021/01/05 04:33:23;;;;;;;6.57;5.87;;;;;;;6.77;74.73;99028.16;4447113;32;33921;-78
2021/01/05 04:36:12;;;;;;;10.30;6.87;;;;;;;6.98;74.00;99027.03;4455720;32;35517;-79
2021/01/05 04:39:00;;;;;;;11.32;7.45;;;;;;;6.88;74.40;99036.78;4450910;32;34273;-79
2021/01/05 04:45:04;;;;;;;5.03;3.95;;;;;;;6.77;74.83;99050.16;4464261;32;33499;-78
2021/01/05 04:55:36;;;;;;;8.23;6.85;;;;;;;6.59;75.18;99056.25;4399899;32;33727;-77
2021/01/05 04:58:31;;;;;;;11.00;5.12;;;;;;;7.07;73.17;99065.88;4373739;32;35525;-77
2021/01/05 05:01:30;;;;;;;11.45;5.82;;;;;;;7.26;72.48;99057.91;4399477;32;34436;-76
2021/01/05 05:04:27;;;;;;;8.55;4.25;;;;;;;7.07;72.80;99071.16;4449429;32;33857;-78
2021/01/05 05:07:31;;;;;;;6.75;6.15;;;;;;;6.78;74.03;99066.84;4458979;32;32835;-78
2021/01/05 05:13:35;;;;;;;9.45;5.97;;;;;;;6.99;72.97;99073.66;4431315;32;34924;-79
2021/01/05 05:16:53;;;;;;;8.13;6.40;;;;;;;6.85;73.49;99067.97;4431807;32;34564;-78
2021/01/05 05:19:32;;;;;;;8.20;5.43;;;;;;;7.02;72.76;99075.19;4432741;32;33873;-77
2021/01/05 05:22:51;;;;;;;6.03;5.12;;;;;;;7.24;71.76;99065.16;4431200;32;34267;-78
2021/01/05 05:26:04;;;;;;;13.62;7.20;;;;;;;7.09;72.37;99063.91;4431255;32;34711;-77
2021/01/05 05:28:42;;;;;;;13.57;5.32;;;;;;;6.97;72.59;99066.84;4417452;32;32562;-80
2021/01/05 05:31:19;;;;;;;7.85;6.05;;;;;;;6.65;73.65;99071.56;4421741;32;33288;-80
2021/01/05 05:37:12;;;;;;;7.47;5.45;;;;;;;6.97;72.10;99070.31;4448076;32;35815;-79
2021/01/05 05:40:12;;;;;;;15.73;5.82;;;;;;;7.14;71.67;99067.00;4407172;32;33828;-79
2021/01/05 05:42:59;;;;;;;6.00;5.47;;;;;;;6.88;72.42;99070.34;4448911;32;33131;-80
2021/01/05 05:46:09;;;;;;;6.62;5.70;;;;;;;6.94;72.11;99078.56;4457267;32;33548;-80
2021/01/05 05:48:58;;;;;;;10.93;5.20;;;;;;;7.25;71.23;99076.56;4423296;32;33899;-82
2021/01/05 05:51:41;;;;;;;7.82;4.57;;;;;;;6.96;71.92;99078.37;4447838;32;33112;-81
2021/01/05 05:54:23;;;;;;;15.90;7.47;;;;;;;6.90;71.91;99079.78;4448624;32;33273;-80
2021/01/05 05:57:12;;;;;;;8.73;7.85;;;;;;;7.06;71.18;99079.22;4435566;32;33586;-80
2021/01/05 05:59:59;;;;;;;8.70;5.97;;;;;;;6.91;71.62;99080.63;4449768;32;35174;-81
2021/01/05 06:02:39;;;;;;;6.85;5.43;;;;;;;7.26;70.44;99080.91;4436444;32;35919;-80
2021/01/05 06:05:22;;;;;;;5.15;4.68;;;;;;;7.40;69.90;99083.09;4436308;32;33232;-80
2021/01/05 06:08:23;;;;;;;8.32;5.87;;;;;;;7.37;69.88;99080.75;4431963;32;33228;-79
2021/01/05 06:10:55;;;;;;;8.02;4.32;;;;;;;7.17;70.44;99079.09;4447164;32;36907;-82
2021/01/05 06:13:31;;;;;;;8.38;4.22;;;;;;;7.19;70.01;99080.59;4448375;32;33632;-79
2021/01/05 06:16:23;;;;;;;5.82;5.00;;;;;;;6.49;72.42;99081.81;4425995;32;32876;-80
2021/01/05 06:19:00;;;;;;;7.47;5.82;;;;;;;6.66;72.30;99094.37;4436452;32;33390;-80
2021/01/05 06:21:44;;;;;;;8.52;6.03;;;;;;;6.45;72.70;99089.19;4435740;32;34708;-81
2021/01/05 06:24:15;;;;;;;13.07;6.90;;;;;;;6.92;71.38;99096.34;4448285;32;33891;-80
2021/01/05 06:26:49;;;;;;;7.78;5.90;;;;;;;7.05;70.83;99098.72;4449510;32;33015;-80
2021/01/05 06:29:29;;;;;;;7.55;4.62;;;;;;;6.89;71.12;99101.91;4448084;32;33413;-82
2021/01/05 06:32:04;;;;;;;10.48;5.55;;;;;;;6.66;71.82;99108.44;4449632;32;34918;-79
2021/01/05 06:34:46;;;;;;;10.32;4.97;;;;;;;6.98;70.96;99113.47;4436181;32;34931;-81
2021/01/05 06:37:26;;;;;;;7.78;5.43;;;;;;;6.54;72.34;99113.97;4436110;32;32870;-80
2021/01/05 06:40:07;;;;;;;5.07;3.33;;;;;;;6.35;72.92;99114.72;4436941;32;35976;-80
2021/01/05 06:42:42;;;;;;;8.95;5.05;;;;;;;6.61;71.77;99115.91;4448209;32;34649;-80
2021/01/05 06:45:35;;;;;;;8.93;5.43;;;;;;;6.57;72.16;99116.31;4440490;32;34252;-81
2021/01/05 06:48:04;;;;;;;7.15;4.57;;;;;;;6.32;72.91;99117.66;4463781;32;32904;-85
2021/01/05 06:50:33;;;;;;;8.90;5.45;;;;;;;6.45;72.36;99117.41;4450786;32;33111;-81
2021/01/05 06:53:19;;;;;;;11.53;5.40;;;;;;;6.50;72.16;99123.13;4463786;32;34547;-82
2021/01/05 06:55:52;;;;;;;4.05;3.62;;;;;;;6.28;72.73;99121.53;4450713;32;33903;-82
2021/01/05 06:58:30;;;;;;;9.25;5.07;;;;;;;6.30;72.85;99122.25;4450793;32;32777;-81
2021/01/05 07:01:03;;;;;;;5.45;4.75;;;;;;;5.98;73.69;99120.72;4463249;32;34341;-82
2021/01/05 07:03:47;;;;;;;14.10;6.55;;;;;;;6.36;72.59;99119.03;4451004;32;34991;-81
2021/01/05 07:06:14;;;;;;;7.65;4.40;;;;;;;6.25;72.75;99128.91;4463619;32;33754;-80
2021/01/05 07:08:45;;;;;;;8.85;5.78;;;;;;;5.97;73.46;99122.50;4450214;32;33058;-82
2021/01/05 07:11:13;;;;;;;5.35;4.32;;;;;;;6.25;72.70;99128.91;4437798;32;33014;-82
2021/01/05 07:13:44;;;;;;;6.97;3.93;;;;;;;6.12;73.16;99128.28;4450475;32;34086;-82
2021/01/05 07:16:14;;;;;;;8.00;4.72;;;;;;;6.01;73.29;99123.94;4450623;32;33996;-80
2021/01/05 07:18:45;;;;;;;10.23;8.35;;;;;;;5.82;74.28;99128.28;4438179;32;33490;-82
2021/01/05 07:21:16;;;;;;;3.70;3.40;;;;;;;5.71;74.77;99126.50;4451018;32;33474;-82
2021/01/05 07:23:54;;;;;;;6.62;5.97;;;;;;;6.32;72.55;99136.16;4451254;32;35874;-80
2021/01/05 07:26:47;;;;;;;7.93;5.72;;;;;;;5.96;74.02;99149.06;4464749;32;33874;-81
2021/01/05 07:29:32;;;;;;;6.40;4.40;;;;;;;5.78;74.67;99142.69;4463245;32;33123;-82
2021/01/05 07:32:16;;;;;;;6.10;2.83;;;;;;;5.58;75.79;99146.16;4463330;32;34374;-82
2021/01/05 07:34:48;;;;;;;4.43;3.37;;;;;;;5.27;76.82;99144.38;4464767;32;35782;-81
2021/01/05 07:37:31;;;;;;;5.25;4.05;;;;;;;5.15;77.23;99142.78;4462582;32;34198;-81
2021/01/05 07:40:10;;;;;;;6.93;5.50;;;;;;;5.25;76.99;99145.47;4439702;32;33290;-82
2021/01/05 07:42:40;;;;;;;7.75;4.82;;;;;;;5.36;76.37;99153.34;4448380;32;34191;-81
2021/01/05 07:45:34;;;;;;;3.97;3.58;;;;;;;5.45;76.12;99149.97;4437235;32;34890;-81
2021/01/05 07:48:21;;;;;;;8.05;7.28;;;;;;;5.86;74.49;99153.47;4447377;32;34925;-82
2021/01/05 07:50:56;;;;;;;4.72;4.43;;;;;;;5.78;74.61;99156.69;4447433;32;33558;-83
2021/01/05 07:53:27;;;;;;;8.65;5.22;;;;;;;5.71;74.44;99158.16;4447496;32;34060;-82
2021/01/05 07:56:35;;;;;;;5.20;4.70;;;;;;;5.79;74.88;99154.94;4436843;32;34287;-82
2021/01/05 07:59:11;;;;;;;5.90;3.25;;;;;;;5.61;74.93;99165.19;4446788;32;34184;-83
2021/01/05 08:04:35;;;;;;;4.70;3.25;;;;;;;5.53;75.72;99172.94;4445847;32;34299;-82
2021/01/05 08:07:08;;;;;;;6.45;5.90;;;;;;;5.36;76.36;99167.38;4433071;32;36173;-82
2021/01/05 08:09:52;;;;;;;9.18;3.80;;;;;;;5.50;76.25;99164.44;4448929;32;34024;-81
2021/01/05 08:12:26;;;;;;;6.28;4.57;;;;;;;5.67;75.50;99169.97;4445037;32;32367;-84
2021/01/05 08:15:19;;;;;;;7.47;3.83;;;;;;;5.68;75.32;99169.00;4425564;32;33864;-82
2021/01/05 08:18:08;;;;;;;8.55;5.00;;;;;;;5.79;74.82;99168.13;4447156;32;35216;-83
2021/01/05 08:20:53;;;;;;;9.30;6.18;;;;;;;5.73;75.13;99176.53;4443591;32;34109;-83
2021/01/05 08:23:40;;;;;;;7.55;5.00;;;;;;;5.87;74.56;99174.41;4444570;32;33634;-83
2021/01/05 08:26:34;;;;;;;7.97;4.40;;;;;;;6.04;73.55;99168.53;4444187;32;33373;-83
2021/01/05 08:29:11;;;;;;;3.20;2.90;;;;;;;6.19;73.37;99176.97;4432409;32;37750;-83
2021/01/05 08:34:27;;;;;;;3.60;3.33;;;;;;;6.47;72.55;99185.03;4448685;32;33228;-82
2021/01/05 08:37:03;;;;;;;5.68;4.05;;;;;;;6.31;73.16;99181.16;4435375;32;33250;-83
2021/01/05 08:39:34;;;;;;;12.65;3.87;;;;;;;6.39;72.26;99184.00;4434819;32;35101;-84
2021/01/05 08:42:06;;;;;;;9.50;4.97;;;;;;;6.54;71.57;99186.13;4421910;32;34180;-83
2021/01/05 08:44:36;;;;;;;10.13;5.10;;;;;;;6.83;71.04;99181.78;4431468;32;34075;-84
2021/01/05 08:47:30;;;;;;;4.97;4.47;;;;;;;6.94;70.98;99192.25;4442546;32;32840;-83
2021/01/05 08:50:07;;;;;;;11.60;5.43;;;;;;;6.91;70.99;99191.69;4414360;32;33676;-82
2021/01/05 08:53:06;;;;;;;6.22;5.00;;;;;;;7.00;70.90;99196.16;4418405;32;34749;-83
2021/01/05 08:56:01;;;;;;;8.07;5.28;;;;;;;6.67;71.85;99199.97;4433194;32;34421;-82
2021/01/05 08:58:33;;;;;;;7.32;5.90;;;;;;;7.14;70.39;99196.59;4418925;32;33706;-84
2021/01/05 09:01:35;;;;;;;5.68;3.87;;;;;;;6.57;71.57;99193.81;4408662;32;37117;-82
2021/01/05 09:04:09;;;;;;;3.28;2.97;;;;;;;6.44;72.11;99193.19;4406378;32;33545;-84
2021/01/05 09:06:40;;;;;;;5.40;3.60;;;;;;;5.82;74.28;99200.37;4419516;32;32406;-82
2021/01/05 09:09:17;;;;;;;6.70;4.93;;;;;;;5.85;74.22;99212.47;4414058;32;34681;-85
2021/01/05 09:11:58;;;;;;;8.27;3.67;;;;;;;5.52;75.41;99205.53;4394333;32;36210;-85
2021/01/05 09:14:30;;;;;;;7.72;5.45;;;;;;;5.43;76.14;99213.38;4393372;32;35061;-85
2021/01/05 09:17:05;;;;;;;4.43;2.90;;;;;;;5.79;74.91;99205.91;4393528;32;33333;-87
2021/01/05 09:19:47;;;;;;;4.37;3.80;;;;;;;5.43;75.85;99216.00;4432749;32;33226;-84
2021/01/05 09:22:23;;;;;;;3.37;2.92;;;;;;;5.57;75.58;99207.78;4393916;32;38328;-83
2021/01/05 09:24:55;;;;;;;5.82;3.08;;;;;;;5.61;75.34;99211.84;4405733;32;34299;-84
2021/01/05 09:27:43;;;;;;;7.00;4.22;;;;;;;5.73;75.05;99216.09;4438788;32;33896;-85
2021/01/05 09:30:21;;;;;;;6.80;5.78;;;;;;;6.06;73.99;99214.13;4385187;32;32289;-84
2021/01/05 09:32:50;;;;;;;4.53;4.18;;;;;;;6.05;74.17;99217.75;4433484;32;33779;-82
2021/01/05 09:35:24;;;;;;;2.67;2.45;;;;;;;5.99;73.87;99215.63;4402655;32;34638;-85
2021/01/05 09:40:32;;;;;;;7.53;4.03;;;;;;;6.03;73.84;99219.69;4447850;32;33633;-83
2021/01/05 09:43:08;;;;;;;3.90;3.62;;;;;;;6.11;73.16;99219.88;4411671;32;33757;-83
2021/01/05 09:45:40;;;;;;;4.43;4.05;;;;;;;6.21;73.64;99226.03;4417556;32;34039;-83
2021/01/05 09:48:14;;;;;;;4.15;3.80;;;;;;;6.35;72.80;99216.94;4393446;32;32620;-83
2021/01/05 09:50:47;;;;;;;8.95;6.20;;;;;;;6.30;73.13;99229.69;4429766;32;36605;-85
2021/01/05 09:53:30;;;;;;;4.30;4.00;;;;;;;6.27;72.86;99220.25;4413876;32;33407;-84
2021/01/05 09:56:03;;;;;;;5.25;3.08;;;;;;;6.21;73.33;99219.91;4394721;32;32801;-85
2021/01/05 09:58:36;;;;;;;7.47;3.92;;;;;;;6.13;73.56;99219.72;4390267;32;32225;-84
2021/01/05 10:01:18;;;;;;;4.82;3.58;;;;;;;6.56;72.45;99225.66;4417005;32;33115;-85
2021/01/05 10:04:07;;;;;;;8.77;4.65;;;;;;;6.49;72.92;99217.41;4416984;32;34850;-86
2021/01/05 10:06:35;;;;;;;6.60;4.30;;;;;;;6.78;71.40;99225.44;4395439;32;33629;-87
2021/01/05 10:11:59;;;;;;;8.60;4.07;;;;;;;6.26;73.21;99226.47;4418559;32;32386;-84
2021/01/05 10:14:42;;;;;;;8.18;4.50;;;;;;;5.96;73.65;99229.06;4432149;32;34204;-86
2021/01/05 10:17:18;;;;;;;5.35;3.00;;;;;;;5.73;74.54;99226.66;4430946;32;33974;-84
2021/01/05 10:19:50;;;;;;;4.07;3.50;;;;;;;6.15;73.55;99225.72;4431942;32;33164;-82
2021/01/05 10:22:24;;;;;;;5.82;4.70;;;;;;;6.02;73.62;99233.00;4410764;32;33290;-83
2021/01/05 10:25:03;;;;;;;4.57;4.25;;;;;;;5.93;74.02;99225.84;4430361;32;34723;-85
2021/01/05 10:27:32;;;;;;;3.87;3.47;;;;;;;5.95;73.88;99221.31;4417498;32;34120;-85
2021/01/05 10:30:25;;;;;;;5.18;4.32;;;;;;;6.25;73.34;99219.50;4432266;32;34175;-84
2021/01/05 10:33:01;;;;;;;4.20;3.80;;;;;;;6.26;72.46;99217.72;4421006;32;33612;-83
2021/01/05 10:35:50;;;;;;;5.73;3.37;;;;;;;5.95;73.30;99218.66;4408155;32;33423;-86
2021/01/05 10:38:38;;;;;;;4.30;3.75;;;;;;;6.24;72.50;99214.38;4419118;32;35314;-87
2021/01/05 10:41:11;;;;;;;5.62;2.87;;;;;;;6.11;72.56;99219.03;4395427;32;32185;-85
2021/01/05 10:44:26;;;;;;;4.80;2.95;;;;;;;6.12;72.70;99212.78;4413748;32;33766;-83
2021/01/05 10:47:15;;;;;;;5.20;2.95;;;;;;;6.20;71.93;99215.59;4419004;32;34381;-84
2021/01/05 10:50:15;;;;;;;8.95;5.22;;;;;;;6.39;72.07;99215.69;4422460;32;34060;-82
2021/01/05 10:53:21;;;;;;;6.20;2.95;;;;;;;6.45;71.97;99212.53;4432695;32;34407;-84
2021/01/05 10:55:53;;;;;;;5.57;3.72;;;;;;;6.43;71.95;99210.00;4419303;32;32674;-83
2021/01/05 10:58:25;;;;;;;4.53;3.97;;;;;;;6.52;71.64;99222.44;4408250;32;33747;-81
2021/01/05 11:01:07;;;;;;;5.55;4.07;;;;;;;6.73;71.20;99214.44;4421222;32;34161;-83
2021/01/05 11:03:39;;;;;;;4.85;3.28;;;;;;;6.64;71.58;99216.06;4423070;32;33065;-85
2021/01/05 11:06:14;;;;;;;5.72;4.37;;;;;;;6.82;70.30;99219.75;4420415;32;33735;-82
2021/01/05 11:08:48;;;;;;;3.92;2.42;;;;;;;6.80;70.92;99223.53;4420001;32;34781;-86
2021/01/05 11:11:24;;;;;;;7.45;5.43;;;;;;;6.91;70.68;99226.88;4419672;32;33363;-83
2021/01/05 11:13:52;;;;;;;4.80;4.22;;;;;;;6.96;70.03;99224.66;4420056;32;33541;-83
2021/01/05 11:16:39;;;;;;;4.70;4.25;;;;;;;6.87;69.99;99224.63;4420039;32;34433;-82
2021/01/05 11:19:14;;;;;;;4.30;3.87;;;;;;;7.05;69.76;99218.56;4433924;32;34843;-83
2021/01/05 11:21:53;;;;;;;2.78;2.00;;;;;;;6.69;70.96;99216.53;4424308;32;34825;-84
2021/01/05 11:24:26;;;;;;;5.17;4.67;;;;;;;6.21;72.10;99218.13;4432506;32;33001;-84
2021/01/05 11:26:56;;;;;;;7.05;3.25;;;;;;;6.37;71.71;99229.06;4432939;32;34521;-84
2021/01/05 11:29:32;;;;;;;7.03;5.03;;;;;;;6.61;71.30;99232.19;4435152;32;34961;-85
2021/01/05 11:32:09;;;;;;;7.25;4.53;;;;;;;6.63;70.45;99227.62;4421329;32;34834;-85
2021/01/05 11:34:40;;;;;;;5.85;3.90;;;;;;;6.54;71.04;99222.31;4431034;32;32916;-84
2021/01/05 11:37:19;;;;;;;4.15;3.70;;;;;;;6.94;69.99;99223.13;4433976;32;35031;-85
2021/01/05 11:40:09;;;;;;;;;;;;;;;;;;;;;
2021/01/05 11:42:51;;;;;;;5.72;3.75;;;;;;;6.76;69.42;99222.94;4439174;32;34364;-82
2021/01/05 11:45:26;;;;;;;4.03;3.15;;;;;;;6.90;69.02;99227.03;4441421;32;34584;-83
2021/01/05 11:48:03;;;;;;;5.37;4.03;;;;;;;6.80;68.99;99232.28;4436040;32;33769;-84
2021/01/05 11:50:43;;;;;;;4.57;4.20;;;;;;;6.94;68.73;99223.97;4434855;32;33956;-83
2021/01/05 11:53:19;;;;;;;3.08;2.62;;;;;;;6.87;68.12;99228.12;4447345;32;36223;-83
2021/01/05 11:55:57;;;;;;;2.85;2.65;;;;;;;6.88;68.47;99226.34;4449054;32;33027;-85
2021/01/05 11:58:52;;;;;;;3.12;2.67;;;;;;;6.92;68.08;99219.78;4435438;32;32829;-81
2021/01/05 12:01:24;;;;;;;3.15;2.53;;;;;;;6.95;68.65;99227.44;4438165;32;34606;-83
2021/01/05 12:04:20;;;;;;;4.85;3.83;;;;;;;7.26;66.60;99231.69;4436967;32;35345;-82
2021/01/05 12:07:03;;;;;;;3.42;3.12;;;;;;;7.04;67.90;99238.06;4435757;32;33610;-83
2021/01/05 12:10:19;;;;;;;1.40;1.30;;;;;;;6.78;67.87;99233.38;4446891;32;34917;-83
2021/01/05 12:13:32;;;;;;;7.00;4.25;;;;;;;7.21;66.97;99236.56;4443196;32;34410;-83
2021/01/05 12:16:10;;;;;;;5.43;4.37;;;;;;;6.72;68.13;99240.03;4430963;32;33038;-83
2021/01/05 12:19:01;;;;;;;3.83;3.05;;;;;;;6.96;67.96;99235.25;4447439;32;33170;-81
2021/01/05 12:21:45;;;;;;;8.07;5.35;;;;;;;6.83;68.60;99239.09;4448764;32;34024;-83
2021/01/05 12:24:37;;;;;;;2.33;2.10;;;;;;;7.12;67.60;99238.22;4447158;32;34108;-83
2021/01/05 12:27:09;;;;;;;3.20;2.65;;;;;;;7.04;67.74;99238.06;4448525;32;34786;-82
2021/01/05 12:29:46;;;;;;;5.78;1.33;;;;;;;7.04;67.38;99242.50;4423040;32;33355;-83
2021/01/05 12:32:34;;;;;;;2.75;2.15;;;;;;;7.26;66.85;99243.09;4423096;32;34171;-84
2021/01/05 12:35:26;;;;;;;2.90;1.95;;;;;;;7.00;67.56;99241.09;4444606;32;35422;-83
2021/01/05 12:38:16;;;;;;;3.15;1.92;;;;;;;6.63;67.88;99243.47;4444576;32;34443;-83
2021/01/05 12:41:11;;;;;;;1.45;1.25;;;;;;;6.91;67.30;99257.78;4433677;32;33015;-85
2021/01/05 12:43:48;;;;;;;2.12;1.90;;;;;;;6.74;67.31;99255.78;4447171;32;34691;-82
2021/01/05 12:46:35;;;;;;;4.07;2.15;;;;;;;6.66;68.01;99247.66;4446951;32;36226;-82
2021/01/05 12:49:09;;;;;;;3.10;2.62;;;;;;;6.63;68.20;99245.28;4446661;32;33970;-83
2021/01/05 12:51:59;;;;;;;2.25;2.05;;;;;;;6.59;68.17;99252.66;4432547;32;31567;-83
2021/01/05 12:54:30;;;;;;;3.47;2.30;;;;;;;6.81;67.19;99251.63;4447130;32;33991;-85
2021/01/05 12:57:22;;;;;;;7.78;5.97;;;;;;;7.01;66.87;99266.56;4435036;32;34814;-84
2021/01/05 13:00:16;;;;;;;4.95;4.45;;;;;;;6.55;68.00;99263.63;4435475;32;34551;-82
2021/01/05 13:02:51;;;;;;;3.45;3.03;;;;;;;6.67;68.33;99267.84;4434355;32;31463;-83
2021/01/05 13:05:22;;;;;;;4.75;2.75;;;;;;;6.69;68.25;99269.37;4447392;32;33575;-83
2021/01/05 13:07:56;;;;;;;6.30;3.75;;;;;;;6.42;68.71;99277.03;4422271;32;35945;-87
2021/01/05 13:10:31;;;;;;;2.58;2.10;;;;;;;6.74;68.10;99271.63;4434620;32;34078;-85
2021/01/05 13:13:06;;;;;;;4.87;3.22;;;;;;;6.53;68.68;99274.31;4448114;32;33111;-84
2021/01/05 13:15:39;;;;;;;2.65;2.28;;;;;;;6.50;69.03;99274.56;4434411;32;35312;-84
2021/01/05 13:20:57;;;;;;;1.73;1.52;;;;;;;6.59;68.40;99286.16;4448068;32;34236;-85
2021/01/05 13:23:27;;;;;;;1.70;1.33;;;;;;;6.77;67.92;99287.22;4433710;32;33289;-84
2021/01/05 13:26:14;;;;;;;2.22;1.80;;;;;;;6.39;68.19;99287.03;4432774;32;34294;-85
2021/01/05 13:29:08;;;;;;;3.22;1.42;;;;;;;6.37;68.46;99291.59;4414731;32;35789;-83
2021/01/05 13:32:05;;;;;;;1.70;1.60;;;;;;;5.75;70.46;99291.56;4434761;32;33911;-83
2021/01/05 13:35:03;;;;;;;3.35;1.98;;;;;;;6.25;69.15;99297.94;4443252;32;33866;-84
2021/01/05 13:37:53;;;;;;;0.98;0.90;;;;;;;6.40;68.83;99296.62;4436193;32;33392;-82
2021/01/05 13:40:37;;;;;;;1.40;1.33;;;;;;;6.67;67.85;99307.47;4446295;32;37405;-85
2021/01/05 13:43:26;;;;;;;2.33;0.88;;;;;;;6.30;68.81;99308.94;4445955;32;34216;-83
2021/01/05 13:46:01;;;;;;;4.07;1.50;;;;;;;6.11;69.58;99312.31;4444865;32;33274;-84
2021/01/05 13:48:49;;;;;;;1.87;1.77;;;;;;;6.31;68.57;99302.69;4444046;32;34938;-84
2021/01/05 13:51:31;;;;;;;1.73;1.27;;;;;;;6.23;68.80;99313.09;4419442;32;35189;-84
2021/01/05 13:54:05;;;;;;;2.17;1.48;;;;;;;5.91;69.57;99322.81;4447800;32;33675;-81
2021/01/05 13:56:48;;;;;;;1.62;1.25;;;;;;;5.94;69.92;99328.69;4432523;32;32191;-81
2021/01/05 13:59:17;;;;;;;4.00;3.00;;;;;;;5.95;69.99;99334.81;4440484;32;33801;-83
2021/01/05 14:02:04;;;;;;;1.08;0.82;;;;;;;6.11;69.55;99332.56;4451065;32;36355;-84
2021/01/05 14:04:48;;;;;;;3.17;2.58;;;;;;;6.08;69.34;99330.19;4437017;32;33740;-83
2021/01/05 14:07:19;;;;;;;2.83;2.45;;;;;;;6.20;68.54;99340.59;4448268;32;33919;-84
2021/01/05 14:09:48;;;;;;;2.67;2.47;;;;;;;5.97;69.73;99338.19;4448240;32;32504;-84
2021/01/05 14:12:33;;;;;;;3.62;1.70;;;;;;;5.77;71.20;99345.03;4419652;32;33260;-84
2021/01/05 14:15:03;;;;;;;1.45;1.27;;;;;;;5.97;70.08;99339.00;4439535;32;32776;-85
2021/01/05 14:17:34;;;;;;;2.53;2.33;;;;;;;5.95;70.31;99345.37;4420520;32;32807;-84
2021/01/05 14:20:03;;;;;;;4.05;2.75;;;;;;;5.80;70.66;99349.28;4422432;32;35789;-85